sensor_id;sensor_type;location;lat;lon;timestamp;P1;durP1;ratioP1;P2;durP2;ratioP2
10687;SDS011;5392;42.688;23.298;2023-01-23T00:01:24;3.13;;;2.92;;
10687;SDS011;5392;42.688;23.298;2023-01-23T00:03:54;2.05;;;1.95;;
10687;SDS011;5392;42.688;23.298;2023-01-23T00:06:21;4.65;;;3.15;;
10687;SDS011;5392;42.688;23.298;2023-01-23T00:08:48;3.03;;;2.30;;
10687;SDS011;5392;42.688;23.298;2023-01-23T00:11:17;2.65;;;2.45;;
10687;SDS011;5392;42.688;23.298;2023-01-23T00:13:45;3.50;;;2.40;;
10687;SDS011;5392;42.688;23.298;2023-01-23T00:16:13;3.47;;;2.47;;
10687;SDS011;5392;42.688;23.298;2023-01-23T00:18:42;2.67;;;2.47;;
10687;SDS011;5392;42.688;23.298;2023-01-23T00:21:10;2.70;;;2.50;;
10687;SDS011;5392;42.688;23.298;2023-01-23T00:23:40;1.98;;;1.88;;
10687;SDS011;5392;42.688;23.298;2023-01-23T00:26:10;2.00;;;1.90;;
10687;SDS011;5392;42.688;23.298;2023-01-23T00:28:41;1.80;;;1.80;;
10687;SDS011;5392;42.688;23.298;2023-01-23T00:31:11;1.30;;;1.23;;
10687;SDS011;5392;42.688;23.298;2023-01-23T00:33:43;4.53;;;2.00;;
10687;SDS011;5392;42.688;23.298;2023-01-23T00:36:10;2.92;;;2.20;;
10687;SDS011;5392;42.688;23.298;2023-01-23T00:38:38;3.55;;;3.35;;
10687;SDS011;5392;42.688;23.298;2023-01-23T00:41:05;3.58;;;3.22;;
10687;SDS011;5392;42.688;23.298;2023-01-23T00:43:32;4.30;;;2.38;;
10687;SDS011;5392;42.688;23.298;2023-01-23T00:45:59;3.10;;;2.90;;
10687;SDS011;5392;42.688;23.298;2023-01-23T00:48:26;2.45;;;2.33;;
10687;SDS011;5392;42.688;23.298;2023-01-23T00:50:53;6.65;;;3.05;;
10687;SDS011;5392;42.688;23.298;2023-01-23T00:53:20;4.97;;;2.70;;
10687;SDS011;5392;42.688;23.298;2023-01-23T00:55:47;3.75;;;2.15;;
10687;SDS011;5392;42.688;23.298;2023-01-23T00:58:13;0.70;;;0.70;;
10687;SDS011;5392;42.688;23.298;2023-01-23T01:00:40;2.78;;;1.83;;
10687;SDS011;5392;42.688;23.298;2023-01-23T01:03:07;2.75;;;2.05;;
10687;SDS011;5392;42.688;23.298;2023-01-23T01:05:34;1.77;;;1.65;;
10687;SDS011;5392;42.688;23.298;2023-01-23T01:08:01;2.10;;;2.00;;
10687;SDS011;5392;42.688;23.298;2023-01-23T01:10:28;1.90;;;1.80;;
10687;SDS011;5392;42.688;23.298;2023-01-23T01:12:56;2.55;;;1.83;;
10687;SDS011;5392;42.688;23.298;2023-01-23T01:15:23;3.55;;;2.53;;
10687;SDS011;5392;42.688;23.298;2023-01-23T01:17:51;3.05;;;1.45;;
10687;SDS011;5392;42.688;23.298;2023-01-23T01:20:21;2.17;;;1.95;;
10687;SDS011;5392;42.688;23.298;2023-01-23T01:22:49;2.00;;;1.85;;
10687;SDS011;5392;42.688;23.298;2023-01-23T01:25:16;1.77;;;1.60;;
10687;SDS011;5392;42.688;23.298;2023-01-23T01:27:43;3.25;;;2.00;;
10687;SDS011;5392;42.688;23.298;2023-01-23T01:30:11;2.78;;;2.17;;
10687;SDS011;5392;42.688;23.298;2023-01-23T01:32:39;2.60;;;1.73;;
10687;SDS011;5392;42.688;23.298;2023-01-23T01:35:07;2.33;;;2.13;;
10687;SDS011;5392;42.688;23.298;2023-01-23T01:37:35;2.83;;;2.17;;
10687;SDS011;5392;42.688;23.298;2023-01-23T01:40:04;1.83;;;1.73;;
10687;SDS011;5392;42.688;23.298;2023-01-23T01:42:42;3.05;;;1.02;;
10687;SDS011;5392;42.688;23.298;2023-01-23T01:48:14;2.67;;;1.50;;
10687;SDS011;5392;42.688;23.298;2023-01-23T01:50:42;0.65;;;0.65;;
10687;SDS011;5392;42.688;23.298;2023-01-23T01:53:09;1.35;;;0.82;;
10687;SDS011;5392;42.688;23.298;2023-01-23T01:55:36;0.98;;;0.98;;
10687;SDS011;5392;42.688;23.298;2023-01-23T01:58:04;2.05;;;1.17;;
10687;SDS011;5392;42.688;23.298;2023-01-23T02:00:32;0.70;;;0.70;;
10687;SDS011;5392;42.688;23.298;2023-01-23T02:02:59;0.82;;;0.82;;
10687;SDS011;5392;42.688;23.298;2023-01-23T02:05:30;1.13;;;0.80;;
10687;SDS011;5392;42.688;23.298;2023-01-23T02:08:09;0.60;;;0.60;;
10687;SDS011;5392;42.688;23.298;2023-01-23T02:10:42;2.17;;;1.15;;
10687;SDS011;5392;42.688;23.298;2023-01-23T02:16:00;1.95;;;1.45;;
10687;SDS011;5392;42.688;23.298;2023-01-23T02:18:33;1.00;;;1.00;;
10687;SDS011;5392;42.688;23.298;2023-01-23T02:21:03;1.20;;;1.10;;
10687;SDS011;5392;42.688;23.298;2023-01-23T02:26:23;0.90;;;0.80;;
10687;SDS011;5392;42.688;23.298;2023-01-23T02:28:54;4.47;;;0.75;;
10687;SDS011;5392;42.688;23.298;2023-01-23T02:31:21;0.60;;;0.50;;
10687;SDS011;5392;42.688;23.298;2023-01-23T02:33:49;0.82;;;0.60;;
10687;SDS011;5392;42.688;23.298;2023-01-23T02:36:19;3.10;;;0.30;;
10687;SDS011;5392;42.688;23.298;2023-01-23T02:41:28;1.30;;;0.80;;
10687;SDS011;5392;42.688;23.298;2023-01-23T02:43:58;0.50;;;0.50;;
10687;SDS011;5392;42.688;23.298;2023-01-23T02:46:28;1.15;;;0.40;;
10687;SDS011;5392;42.688;23.298;2023-01-23T02:48:55;0.70;;;0.40;;
10687;SDS011;5392;42.688;23.298;2023-01-23T02:51:22;0.38;;;0.38;;
10687;SDS011;5392;42.688;23.298;2023-01-23T02:53:50;0.50;;;0.50;;
10687;SDS011;5392;42.688;23.298;2023-01-23T02:56:17;1.48;;;0.52;;
10687;SDS011;5392;42.688;23.298;2023-01-23T02:58:45;1.35;;;0.73;;
10687;SDS011;5392;42.688;23.298;2023-01-23T03:01:30;0.80;;;0.50;;
10687;SDS011;5392;42.688;23.298;2023-01-23T03:04:01;1.77;;;0.88;;
10687;SDS011;5392;42.688;23.298;2023-01-23T03:06:29;0.90;;;0.63;;
10687;SDS011;5392;42.688;23.298;2023-01-23T03:09:05;1.17;;;0.40;;
10687;SDS011;5392;42.688;23.298;2023-01-23T03:11:35;0.60;;;0.60;;
10687;SDS011;5392;42.688;23.298;2023-01-23T03:14:04;0.30;;;0.30;;
10687;SDS011;5392;42.688;23.298;2023-01-23T03:16:33;0.30;;;0.30;;
10687;SDS011;5392;42.688;23.298;2023-01-23T03:19:05;0.40;;;0.40;;
10687;SDS011;5392;42.688;23.298;2023-01-23T03:21:35;0.40;;;0.40;;
10687;SDS011;5392;42.688;23.298;2023-01-23T03:24:06;0.88;;;0.40;;
10687;SDS011;5392;42.688;23.298;2023-01-23T03:26:38;0.30;;;0.30;;
10687;SDS011;5392;42.688;23.298;2023-01-23T03:29:19;0.30;;;0.30;;
10687;SDS011;5392;42.688;23.298;2023-01-23T03:32:06;1.10;;;0.40;;
10687;SDS011;5392;42.688;23.298;2023-01-23T03:34:35;1.92;;;0.40;;
10687;SDS011;5392;42.688;23.298;2023-01-23T03:37:01;0.47;;;0.47;;
10687;SDS011;5392;42.688;23.298;2023-01-23T03:39:29;0.52;;;0.50;;
10687;SDS011;5392;42.688;23.298;2023-01-23T03:42:14;0.80;;;0.45;;
10687;SDS011;5392;42.688;23.298;2023-01-23T03:44:40;0.50;;;0.50;;
10687;SDS011;5392;42.688;23.298;2023-01-23T03:47:07;1.10;;;0.60;;
10687;SDS011;5392;42.688;23.298;2023-01-23T03:49:34;0.70;;;0.60;;
10687;SDS011;5392;42.688;23.298;2023-01-23T03:52:00;0.65;;;0.45;;
10687;SDS011;5392;42.688;23.298;2023-01-23T03:54:28;0.93;;;0.57;;
10687;SDS011;5392;42.688;23.298;2023-01-23T03:56:54;2.05;;;0.70;;
10687;SDS011;5392;42.688;23.298;2023-01-23T03:59:21;0.95;;;0.77;;
10687;SDS011;5392;42.688;23.298;2023-01-23T04:01:48;1.23;;;0.77;;
10687;SDS011;5392;42.688;23.298;2023-01-23T04:04:15;0.98;;;0.80;;
10687;SDS011;5392;42.688;23.298;2023-01-23T04:06:41;0.47;;;0.40;;
10687;SDS011;5392;42.688;23.298;2023-01-23T04:09:08;0.77;;;0.70;;
10687;SDS011;5392;42.688;23.298;2023-01-23T04:11:35;0.47;;;0.47;;
10687;SDS011;5392;42.688;23.298;2023-01-23T04:14:02;1.98;;;0.80;;
10687;SDS011;5392;42.688;23.298;2023-01-23T04:16:29;0.95;;;0.80;;
10687;SDS011;5392;42.688;23.298;2023-01-23T04:18:56;2.20;;;1.00;;
10687;SDS011;5392;42.688;23.298;2023-01-23T04:21:22;1.17;;;0.80;;
10687;SDS011;5392;42.688;23.298;2023-01-23T04:23:49;0.68;;;0.68;;
10687;SDS011;5392;42.688;23.298;2023-01-23T04:26:16;1.23;;;0.60;;
10687;SDS011;5392;42.688;23.298;2023-01-23T04:28:43;1.17;;;0.65;;
10687;SDS011;5392;42.688;23.298;2023-01-23T04:31:09;0.50;;;0.50;;
10687;SDS011;5392;42.688;23.298;2023-01-23T04:33:36;0.60;;;0.60;;
10687;SDS011;5392;42.688;23.298;2023-01-23T04:36:04;1.20;;;0.50;;
10687;SDS011;5392;42.688;23.298;2023-01-23T04:38:32;0.65;;;0.60;;
10687;SDS011;5392;42.688;23.298;2023-01-23T04:40:59;0.45;;;0.45;;
10687;SDS011;5392;42.688;23.298;2023-01-23T04:43:26;1.10;;;0.63;;
10687;SDS011;5392;42.688;23.298;2023-01-23T04:45:53;0.60;;;0.38;;
10687;SDS011;5392;42.688;23.298;2023-01-23T04:48:21;1.00;;;0.60;;
10687;SDS011;5392;42.688;23.298;2023-01-23T04:50:49;0.43;;;0.43;;
10687;SDS011;5392;42.688;23.298;2023-01-23T04:53:16;1.75;;;0.40;;
10687;SDS011;5392;42.688;23.298;2023-01-23T04:55:45;1.60;;;0.40;;
10687;SDS011;5392;42.688;23.298;2023-01-23T04:58:13;1.30;;;0.40;;
10687;SDS011;5392;42.688;23.298;2023-01-23T05:00:40;0.40;;;0.40;;
10687;SDS011;5392;42.688;23.298;2023-01-23T05:03:07;2.40;;;0.40;;
10687;SDS011;5392;42.688;23.298;2023-01-23T05:05:34;0.40;;;0.30;;
10687;SDS011;5392;42.688;23.298;2023-01-23T05:08:01;0.40;;;0.40;;
10687;SDS011;5392;42.688;23.298;2023-01-23T05:10:27;0.57;;;0.45;;
10687;SDS011;5392;42.688;23.298;2023-01-23T05:12:54;0.55;;;0.40;;
10687;SDS011;5392;42.688;23.298;2023-01-23T05:15:21;0.63;;;0.40;;
10687;SDS011;5392;42.688;23.298;2023-01-23T05:17:48;1.33;;;0.70;;
10687;SDS011;5392;42.688;23.298;2023-01-23T05:20:15;1.42;;;0.50;;
10687;SDS011;5392;42.688;23.298;2023-01-23T05:22:41;0.50;;;0.50;;
10687;SDS011;5392;42.688;23.298;2023-01-23T05:25:19;1.17;;;0.55;;
10687;SDS011;5392;42.688;23.298;2023-01-23T05:27:50;2.95;;;0.50;;
10687;SDS011;5392;42.688;23.298;2023-01-23T05:30:17;0.77;;;0.30;;
10687;SDS011;5392;42.688;23.298;2023-01-23T05:32:47;0.55;;;0.50;;
10687;SDS011;5392;42.688;23.298;2023-01-23T05:35:14;0.40;;;0.40;;
10687;SDS011;5392;42.688;23.298;2023-01-23T05:37:42;2.10;;;0.30;;
10687;SDS011;5392;42.688;23.298;2023-01-23T05:40:09;0.63;;;0.50;;
10687;SDS011;5392;42.688;23.298;2023-01-23T05:42:38;1.23;;;0.50;;
10687;SDS011;5392;42.688;23.298;2023-01-23T05:45:05;0.52;;;0.40;;
10687;SDS011;5392;42.688;23.298;2023-01-23T05:47:32;0.63;;;0.40;;
10687;SDS011;5392;42.688;23.298;2023-01-23T05:49:59;0.30;;;0.30;;
10687;SDS011;5392;42.688;23.298;2023-01-23T05:52:26;0.40;;;0.40;;
10687;SDS011;5392;42.688;23.298;2023-01-23T05:54:53;0.50;;;0.40;;
10687;SDS011;5392;42.688;23.298;2023-01-23T05:57:20;2.63;;;0.63;;
10687;SDS011;5392;42.688;23.298;2023-01-23T05:59:47;0.30;;;0.30;;
10687;SDS011;5392;42.688;23.298;2023-01-23T06:02:14;2.75;;;0.68;;
10687;SDS011;5392;42.688;23.298;2023-01-23T06:04:40;0.30;;;0.30;;
10687;SDS011;5392;42.688;23.298;2023-01-23T06:07:14;0.82;;;0.30;;
10687;SDS011;5392;42.688;23.298;2023-01-23T06:09:41;0.30;;;0.30;;
10687;SDS011;5392;42.688;23.298;2023-01-23T06:12:08;0.30;;;0.30;;
10687;SDS011;5392;42.688;23.298;2023-01-23T06:14:36;0.55;;;0.40;;
10687;SDS011;5392;42.688;23.298;2023-01-23T06:17:02;0.55;;;0.45;;
10687;SDS011;5392;42.688;23.298;2023-01-23T06:19:29;2.58;;;0.82;;
10687;SDS011;5392;42.688;23.298;2023-01-23T06:21:56;0.40;;;0.40;;
10687;SDS011;5392;42.688;23.298;2023-01-23T06:24:23;0.80;;;0.40;;
10687;SDS011;5392;42.688;23.298;2023-01-23T06:26:49;1.65;;;0.60;;
10687;SDS011;5392;42.688;23.298;2023-01-23T06:29:16;0.30;;;0.28;;
10687;SDS011;5392;42.688;23.298;2023-01-23T06:31:43;0.20;;;0.20;;
10687;SDS011;5392;42.688;23.298;2023-01-23T06:34:11;0.75;;;0.30;;
10687;SDS011;5392;42.688;23.298;2023-01-23T06:36:39;0.38;;;0.38;;
10687;SDS011;5392;42.688;23.298;2023-01-23T06:39:06;0.65;;;0.50;;
10687;SDS011;5392;42.688;23.298;2023-01-23T06:41:33;0.50;;;0.50;;
10687;SDS011;5392;42.688;23.298;2023-01-23T06:44:00;0.50;;;0.50;;
10687;SDS011;5392;42.688;23.298;2023-01-23T06:46:26;0.77;;;0.65;;
10687;SDS011;5392;42.688;23.298;2023-01-23T06:48:53;1.98;;;0.80;;
10687;SDS011;5392;42.688;23.298;2023-01-23T06:51:20;1.10;;;0.60;;
10687;SDS011;5392;42.688;23.298;2023-01-23T06:53:47;1.02;;;0.55;;
10687;SDS011;5392;42.688;23.298;2023-01-23T06:56:14;1.55;;;0.65;;
10687;SDS011;5392;42.688;23.298;2023-01-23T06:58:42;1.45;;;0.90;;
10687;SDS011;5392;42.688;23.298;2023-01-23T07:01:11;8.20;;;1.35;;
10687;SDS011;5392;42.688;23.298;2023-01-23T07:03:41;2.92;;;2.15;;
10687;SDS011;5392;42.688;23.298;2023-01-23T07:06:10;2.92;;;2.13;;
10687;SDS011;5392;42.688;23.298;2023-01-23T07:08:38;2.92;;;2.60;;
10687;SDS011;5392;42.688;23.298;2023-01-23T07:11:05;5.15;;;3.20;;
10687;SDS011;5392;42.688;23.298;2023-01-23T07:13:32;2.58;;;2.38;;
10687;SDS011;5392;42.688;23.298;2023-01-23T07:15:59;2.22;;;1.75;;
10687;SDS011;5392;42.688;23.298;2023-01-23T07:18:26;2.47;;;2.03;;
10687;SDS011;5392;42.688;23.298;2023-01-23T07:20:54;2.33;;;1.30;;
10687;SDS011;5392;42.688;23.298;2023-01-23T07:23:21;3.63;;;1.92;;
10687;SDS011;5392;42.688;23.298;2023-01-23T07:25:49;3.05;;;2.15;;
10687;SDS011;5392;42.688;23.298;2023-01-23T07:28:15;2.75;;;1.23;;
10687;SDS011;5392;42.688;23.298;2023-01-23T07:30:42;2.90;;;2.10;;
10687;SDS011;5392;42.688;23.298;2023-01-23T07:33:09;3.83;;;2.38;;
10687;SDS011;5392;42.688;23.298;2023-01-23T07:35:37;4.20;;;2.78;;
10687;SDS011;5392;42.688;23.298;2023-01-23T07:38:04;2.88;;;2.03;;
10687;SDS011;5392;42.688;23.298;2023-01-23T07:40:31;6.45;;;4.15;;
10687;SDS011;5392;42.688;23.298;2023-01-23T07:42:58;3.65;;;2.10;;
10687;SDS011;5392;42.688;23.298;2023-01-23T07:45:24;4.05;;;2.22;;
10687;SDS011;5392;42.688;23.298;2023-01-23T07:47:51;6.55;;;4.80;;
10687;SDS011;5392;42.688;23.298;2023-01-23T07:50:18;4.15;;;3.03;;
10687;SDS011;5392;42.688;23.298;2023-01-23T07:52:45;4.88;;;2.72;;
10687;SDS011;5392;42.688;23.298;2023-01-23T07:55:11;4.32;;;3.92;;
10687;SDS011;5392;42.688;23.298;2023-01-23T07:57:38;4.00;;;2.47;;
10687;SDS011;5392;42.688;23.298;2023-01-23T08:00:05;4.15;;;3.05;;
10687;SDS011;5392;42.688;23.298;2023-01-23T08:02:32;3.70;;;2.55;;
10687;SDS011;5392;42.688;23.298;2023-01-23T08:04:59;6.00;;;3.10;;
10687;SDS011;5392;42.688;23.298;2023-01-23T08:07:25;6.43;;;3.58;;
10687;SDS011;5392;42.688;23.298;2023-01-23T08:09:52;5.40;;;3.30;;
10687;SDS011;5392;42.688;23.298;2023-01-23T08:12:19;5.88;;;3.20;;
10687;SDS011;5392;42.688;23.298;2023-01-23T08:14:46;3.42;;;2.45;;
10687;SDS011;5392;42.688;23.298;2023-01-23T08:17:12;4.20;;;2.42;;
10687;SDS011;5392;42.688;23.298;2023-01-23T08:19:39;2.80;;;2.58;;
10687;SDS011;5392;42.688;23.298;2023-01-23T08:22:06;3.33;;;2.03;;
10687;SDS011;5392;42.688;23.298;2023-01-23T08:24:32;1.95;;;1.13;;
10687;SDS011;5392;42.688;23.298;2023-01-23T08:26:59;4.03;;;2.53;;
10687;SDS011;5392;42.688;23.298;2023-01-23T08:29:26;1.88;;;1.63;;
10687;SDS011;5392;42.688;23.298;2023-01-23T08:31:53;1.75;;;1.42;;
10687;SDS011;5392;42.688;23.298;2023-01-23T08:34:20;3.97;;;1.48;;
10687;SDS011;5392;42.688;23.298;2023-01-23T08:36:49;0.90;;;0.55;;
10687;SDS011;5392;42.688;23.298;2023-01-23T08:39:16;4.55;;;2.40;;
10687;SDS011;5392;42.688;23.298;2023-01-23T08:41:43;1.60;;;1.17;;
10687;SDS011;5392;42.688;23.298;2023-01-23T08:44:10;3.58;;;1.23;;
10687;SDS011;5392;42.688;23.298;2023-01-23T08:46:37;2.33;;;1.63;;
10687;SDS011;5392;42.688;23.298;2023-01-23T08:49:04;1.23;;;1.10;;
10687;SDS011;5392;42.688;23.298;2023-01-23T08:51:31;3.10;;;0.80;;
10687;SDS011;5392;42.688;23.298;2023-01-23T08:53:57;1.83;;;1.08;;
10687;SDS011;5392;42.688;23.298;2023-01-23T08:56:24;2.40;;;1.40;;
10687;SDS011;5392;42.688;23.298;2023-01-23T08:58:51;1.90;;;1.00;;
10687;SDS011;5392;42.688;23.298;2023-01-23T09:01:22;1.63;;;0.85;;
10687;SDS011;5392;42.688;23.298;2023-01-23T09:03:50;2.63;;;0.75;;
10687;SDS011;5392;42.688;23.298;2023-01-23T09:06:18;1.65;;;0.90;;
10687;SDS011;5392;42.688;23.298;2023-01-23T09:08:46;1.05;;;0.50;;
10687;SDS011;5392;42.688;23.298;2023-01-23T09:11:13;0.75;;;0.70;;
10687;SDS011;5392;42.688;23.298;2023-01-23T09:13:40;1.70;;;0.98;;
10687;SDS011;5392;42.688;23.298;2023-01-23T09:16:08;0.88;;;0.60;;
10687;SDS011;5392;42.688;23.298;2023-01-23T09:18:35;1.17;;;0.80;;
10687;SDS011;5392;42.688;23.298;2023-01-23T09:21:05;1.58;;;0.90;;
10687;SDS011;5392;42.688;23.298;2023-01-23T09:23:34;0.60;;;0.60;;
10687;SDS011;5392;42.688;23.298;2023-01-23T09:26:01;2.42;;;0.90;;
10687;SDS011;5392;42.688;23.298;2023-01-23T09:28:39;1.35;;;0.60;;
10687;SDS011;5392;42.688;23.298;2023-01-23T09:31:09;0.52;;;0.43;;
10687;SDS011;5392;42.688;23.298;2023-01-23T09:33:37;1.40;;;0.50;;
10687;SDS011;5392;42.688;23.298;2023-01-23T09:36:04;0.82;;;0.30;;
10687;SDS011;5392;42.688;23.298;2023-01-23T09:38:31;0.70;;;0.65;;
10687;SDS011;5392;42.688;23.298;2023-01-23T09:40:59;0.70;;;0.70;;
10687;SDS011;5392;42.688;23.298;2023-01-23T09:43:37;0.47;;;0.47;;
10687;SDS011;5392;42.688;23.298;2023-01-23T09:46:18;0.75;;;0.40;;
10687;SDS011;5392;42.688;23.298;2023-01-23T09:49:06;0.98;;;0.43;;
10687;SDS011;5392;42.688;23.298;2023-01-23T09:54:24;0.50;;;0.50;;
10687;SDS011;5392;42.688;23.298;2023-01-23T09:56:59;1.92;;;0.70;;
10687;SDS011;5392;42.688;23.298;2023-01-23T09:59:34;0.77;;;0.40;;
10687;SDS011;5392;42.688;23.298;2023-01-23T10:02:23;0.93;;;0.50;;
10687;SDS011;5392;42.688;23.298;2023-01-23T10:04:52;0.60;;;0.60;;
10687;SDS011;5392;42.688;23.298;2023-01-23T10:07:24;0.50;;;0.50;;
10687;SDS011;5392;42.688;23.298;2023-01-23T10:26:22;3.22;;;1.65;;
10687;SDS011;5392;42.688;23.298;2023-01-23T10:28:56;1.50;;;1.40;;
10687;SDS011;5392;42.688;23.298;2023-01-23T10:34:21;1.90;;;1.70;;
10687;SDS011;5392;42.688;23.298;2023-01-23T10:37:20;1.60;;;0.90;;
10687;SDS011;5392;42.688;23.298;2023-01-23T10:40:03;2.15;;;0.90;;
10687;SDS011;5392;42.688;23.298;2023-01-23T10:42:36;3.88;;;2.28;;
10687;SDS011;5392;42.688;23.298;2023-01-23T10:45:03;1.55;;;1.13;;
10687;SDS011;5392;42.688;23.298;2023-01-23T10:47:33;1.35;;;1.10;;
10687;SDS011;5392;42.688;23.298;2023-01-23T10:50:04;2.15;;;1.98;;
10687;SDS011;5392;42.688;23.298;2023-01-23T10:52:35;3.72;;;1.88;;
10687;SDS011;5392;42.688;23.298;2023-01-23T10:55:07;4.55;;;3.10;;
10687;SDS011;5392;42.688;23.298;2023-01-23T10:57:53;2.05;;;1.92;;
10687;SDS011;5392;42.688;23.298;2023-01-23T11:00:26;2.92;;;2.63;;
10687;SDS011;5392;42.688;23.298;2023-01-23T11:03:17;3.53;;;2.72;;
10687;SDS011;5392;42.688;23.298;2023-01-23T11:06:15;3.63;;;2.90;;
10687;SDS011;5392;42.688;23.298;2023-01-23T11:08:50;3.03;;;2.22;;
10687;SDS011;5392;42.688;23.298;2023-01-23T11:11:24;4.45;;;3.45;;
10687;SDS011;5392;42.688;23.298;2023-01-23T11:14:05;3.10;;;2.25;;
10687;SDS011;5392;42.688;23.298;2023-01-23T11:16:42;5.40;;;4.53;;
10687;SDS011;5392;42.688;23.298;2023-01-23T11:21:51;4.95;;;2.38;;
10687;SDS011;5392;42.688;23.298;2023-01-23T11:24:20;6.93;;;3.30;;
10687;SDS011;5392;42.688;23.298;2023-01-23T11:32:37;3.03;;;2.70;;
10687;SDS011;5392;42.688;23.298;2023-01-23T11:35:17;4.05;;;2.00;;
10687;SDS011;5392;42.688;23.298;2023-01-23T11:37:49;2.90;;;2.67;;
10687;SDS011;5392;42.688;23.298;2023-01-23T11:40:19;2.47;;;1.55;;
10687;SDS011;5392;42.688;23.298;2023-01-23T11:42:46;2.35;;;1.55;;
10687;SDS011;5392;42.688;23.298;2023-01-23T11:45:18;2.30;;;2.10;;
10687;SDS011;5392;42.688;23.298;2023-01-23T11:48:08;2.97;;;2.67;;
10687;SDS011;5392;42.688;23.298;2023-01-23T12:07:35;3.13;;;2.92;;
10687;SDS011;5392;42.688;23.298;2023-01-23T12:21:14;4.28;;;2.35;;
10687;SDS011;5392;42.688;23.298;2023-01-23T12:30:05;4.97;;;3.05;;
10687;SDS011;5392;42.688;23.298;2023-01-23T12:35:10;8.38;;;5.50;;
10687;SDS011;5392;42.688;23.298;2023-01-23T12:40:38;7.70;;;5.65;;
10687;SDS011;5392;42.688;23.298;2023-01-23T12:45:44;5.97;;;4.90;;
10687;SDS011;5392;42.688;23.298;2023-01-23T12:48:28;4.40;;;2.97;;
10687;SDS011;5392;42.688;23.298;2023-01-23T12:51:04;1.98;;;1.70;;
10687;SDS011;5392;42.688;23.298;2023-01-23T12:53:54;5.18;;;3.58;;
10687;SDS011;5392;42.688;23.298;2023-01-23T12:56:24;6.03;;;4.78;;
10687;SDS011;5392;42.688;23.298;2023-01-23T13:12:42;4.45;;;4.05;;
10687;SDS011;5392;42.688;23.298;2023-01-23T13:17:57;3.38;;;2.83;;
10687;SDS011;5392;42.688;23.298;2023-01-23T13:21:12;2.90;;;2.70;;
10687;SDS011;5392;42.688;23.298;2023-01-23T13:23:40;2.70;;;2.30;;
10687;SDS011;5392;42.688;23.298;2023-01-23T13:28:49;6.57;;;5.13;;
10687;SDS011;5392;42.688;23.298;2023-01-23T13:33:53;5.20;;;4.70;;
10687;SDS011;5392;42.688;23.298;2023-01-23T13:36:29;3.08;;;2.80;;
10687;SDS011;5392;42.688;23.298;2023-01-23T13:39:17;2.80;;;2.60;;
10687;SDS011;5392;42.688;23.298;2023-01-23T13:45:12;2.15;;;1.95;;
10687;SDS011;5392;42.688;23.298;2023-01-23T13:51:20;4.28;;;2.80;;
10687;SDS011;5392;42.688;23.298;2023-01-23T13:54:01;3.05;;;2.40;;
10687;SDS011;5392;42.688;23.298;2023-01-23T13:57:01;3.95;;;3.55;;
10687;SDS011;5392;42.688;23.298;2023-01-23T13:59:46;5.55;;;5.05;;
10687;SDS011;5392;42.688;23.298;2023-01-23T14:02:37;5.78;;;2.92;;
10687;SDS011;5392;42.688;23.298;2023-01-23T14:05:39;3.72;;;3.33;;
10687;SDS011;5392;42.688;23.298;2023-01-23T14:08:20;2.88;;;2.45;;
10687;SDS011;5392;42.688;23.298;2023-01-23T14:11:02;5.30;;;2.10;;
10687;SDS011;5392;42.688;23.298;2023-01-23T14:13:53;4.25;;;3.85;;
10687;SDS011;5392;42.688;23.298;2023-01-23T14:16:52;1.10;;;1.10;;
10687;SDS011;5392;42.688;23.298;2023-01-23T14:19:33;1.95;;;1.85;;
10687;SDS011;5392;42.688;23.298;2023-01-23T14:22:16;4.28;;;2.35;;
10687;SDS011;5392;42.688;23.298;2023-01-23T14:24:45;7.00;;;2.95;;
10687;SDS011;5392;42.688;23.298;2023-01-23T14:27:17;5.57;;;4.10;;
10687;SDS011;5392;42.688;23.298;2023-01-23T14:30:08;3.80;;;2.67;;
10687;SDS011;5392;42.688;23.298;2023-01-23T14:32:39;5.90;;;4.40;;
10687;SDS011;5392;42.688;23.298;2023-01-23T14:35:15;5.80;;;4.07;;
10687;SDS011;5392;42.688;23.298;2023-01-23T14:37:50;6.10;;;3.85;;
10687;SDS011;5392;42.688;23.298;2023-01-23T14:40:19;3.25;;;2.30;;
10687;SDS011;5392;42.688;23.298;2023-01-23T14:43:03;2.40;;;2.20;;
10687;SDS011;5392;42.688;23.298;2023-01-23T14:45:33;5.00;;;3.15;;
10687;SDS011;5392;42.688;23.298;2023-01-23T14:48:03;2.38;;;2.13;;
10687;SDS011;5392;42.688;23.298;2023-01-23T14:50:33;4.88;;;3.55;;
10687;SDS011;5392;42.688;23.298;2023-01-23T14:53:01;2.10;;;1.63;;
10687;SDS011;5392;42.688;23.298;2023-01-23T14:55:28;3.03;;;2.05;;
10687;SDS011;5392;42.688;23.298;2023-01-23T14:57:57;4.10;;;3.78;;
10687;SDS011;5392;42.688;23.298;2023-01-23T15:00:26;3.13;;;2.60;;
10687;SDS011;5392;42.688;23.298;2023-01-23T15:02:53;3.38;;;2.15;;
10687;SDS011;5392;42.688;23.298;2023-01-23T15:05:25;2.00;;;1.50;;
10687;SDS011;5392;42.688;23.298;2023-01-23T15:10:46;5.07;;;2.67;;
10687;SDS011;5392;42.688;23.298;2023-01-23T15:13:23;6.93;;;3.65;;
10687;SDS011;5392;42.688;23.298;2023-01-23T15:15:55;4.40;;;2.38;;
10687;SDS011;5392;42.688;23.298;2023-01-23T15:18:31;4.78;;;3.55;;
10687;SDS011;5392;42.688;23.298;2023-01-23T15:21:00;5.65;;;4.20;;
10687;SDS011;5392;42.688;23.298;2023-01-23T15:26:10;1.85;;;1.75;;
10687;SDS011;5392;42.688;23.298;2023-01-23T15:29:00;7.35;;;3.28;;
10687;SDS011;5392;42.688;23.298;2023-01-23T15:36:45;3.10;;;2.83;;
10687;SDS011;5392;42.688;23.298;2023-01-23T15:39:16;4.28;;;2.38;;
10687;SDS011;5392;42.688;23.298;2023-01-23T15:41:50;1.98;;;1.38;;
10687;SDS011;5392;42.688;23.298;2023-01-23T15:44:20;1.88;;;1.15;;
10687;SDS011;5392;42.688;23.298;2023-01-23T15:46:47;6.93;;;2.35;;
10687;SDS011;5392;42.688;23.298;2023-01-23T15:49:14;2.78;;;2.53;;
10687;SDS011;5392;42.688;23.298;2023-01-23T15:51:53;2.50;;;2.30;;
10687;SDS011;5392;42.688;23.298;2023-01-23T15:54:21;2.95;;;2.75;;
10687;SDS011;5392;42.688;23.298;2023-01-23T15:56:51;1.95;;;1.80;;
10687;SDS011;5392;42.688;23.298;2023-01-23T15:59:31;5.78;;;3.13;;
10687;SDS011;5392;42.688;23.298;2023-01-23T16:01:59;3.70;;;1.60;;
10687;SDS011;5392;42.688;23.298;2023-01-23T16:04:25;3.63;;;2.83;;
10687;SDS011;5392;42.688;23.298;2023-01-23T16:06:52;4.35;;;2.83;;
10687;SDS011;5392;42.688;23.298;2023-01-23T16:09:24;3.92;;;3.38;;
10687;SDS011;5392;42.688;23.298;2023-01-23T16:11:56;3.58;;;3.35;;
10687;SDS011;5392;42.688;23.298;2023-01-23T16:14:25;2.00;;;1.90;;
10687;SDS011;5392;42.688;23.298;2023-01-23T16:16:51;3.67;;;2.75;;
10687;SDS011;5392;42.688;23.298;2023-01-23T16:19:19;3.55;;;2.58;;
10687;SDS011;5392;42.688;23.298;2023-01-23T16:21:46;2.35;;;1.90;;
10687;SDS011;5392;42.688;23.298;2023-01-23T16:24:29;2.70;;;1.13;;
10687;SDS011;5392;42.688;23.298;2023-01-23T16:27:00;1.90;;;1.50;;
10687;SDS011;5392;42.688;23.298;2023-01-23T16:29:28;1.35;;;0.90;;
10687;SDS011;5392;42.688;23.298;2023-01-23T16:31:59;2.42;;;1.60;;
10687;SDS011;5392;42.688;23.298;2023-01-23T16:34:27;2.85;;;2.65;;
10687;SDS011;5392;42.688;23.298;2023-01-23T16:36:58;1.55;;;1.45;;
10687;SDS011;5392;42.688;23.298;2023-01-23T16:39:26;0.88;;;0.88;;
10687;SDS011;5392;42.688;23.298;2023-01-23T16:41:56;1.75;;;1.48;;
10687;SDS011;5392;42.688;23.298;2023-01-23T16:44:23;2.00;;;1.17;;
10687;SDS011;5392;42.688;23.298;2023-01-23T16:46:51;2.80;;;1.10;;
10687;SDS011;5392;42.688;23.298;2023-01-23T16:49:19;1.55;;;1.45;;
10687;SDS011;5392;42.688;23.298;2023-01-23T16:51:56;3.20;;;1.80;;
10687;SDS011;5392;42.688;23.298;2023-01-23T16:54:24;2.20;;;1.30;;
10687;SDS011;5392;42.688;23.298;2023-01-23T16:56:52;1.10;;;1.08;;
10687;SDS011;5392;42.688;23.298;2023-01-23T16:59:21;1.52;;;1.35;;
10687;SDS011;5392;42.688;23.298;2023-01-23T17:01:50;1.70;;;0.77;;
10687;SDS011;5392;42.688;23.298;2023-01-23T17:04:18;4.43;;;1.42;;
10687;SDS011;5392;42.688;23.298;2023-01-23T17:06:46;2.17;;;1.33;;
10687;SDS011;5392;42.688;23.298;2023-01-23T17:09:14;6.45;;;3.70;;
10687;SDS011;5392;42.688;23.298;2023-01-23T17:11:42;26.95;;;13.75;;